Lancaster, SC

2:07 PM EST on February 20, 2017 (GMT -0500)
Lancaster County-McWhirter

Weather History for KLKR - December, 2013

Change the Weather History Date:

Monday, December 30, 2013

  Actual Average (KUZA) Record (KUZA)
Temperature  
Mean Temperature 42 °F -  
Max Temperature 53 °F 50 °F 74 °F (1984)
Min Temperature 32 °F 34 °F 16 °F (1961)
Degree Days  
Heating Degree Days 22    
Moisture  
Dew Point 41 °F    
Average Humidity 95    
Maximum Humidity 100    
Minimum Humidity 62    
Precipitation  
Precipitation 0.00 in - - ()
Sea Level Pressure  
Sea Level Pressure 30.07 in    
Wind  
Wind Speed 0 mph (WSW)    
Max Wind Speed 5 mph    
Max Gust Speed -    
Visibility 6 miles    
Events Fog    
Averages and records for this station are not official NWS values.
T = Trace of Precipitation, MM = Missing Value Source: NWS Daily Summary

Daily Weather History Graph

Daily Weather History Graph

Search for Another Location

Airport or City:

Trip Planner

Search our weather history database for the weather conditions in past years. The results will help you decide how hot, cold, wet, or windy it might be!

Date:

Astronomy

Dec. 30, 2013 Rise Set
Actual Time 7:30 AM EST 5:22 PM EST
Civil Twilight 7:02 AM EST 5:50 PM EST
Nautical Twilight 6:30 AM EST 6:21 PM EST
Astronomical Twilight 6:00 AM EST 6:52 PM EST
Moon 5:20 AM EST (12/30) 3:52 PM EST (12/30)
Length of Visible Light 10h 47m
Length of Day
9h 51m
Waning Crescent, 5% of the Moon is Illuminated
Dec 30
Waning Crescent
Jan 1
New
Jan 7
First Quarter
Jan 15
Full
Jan 24
Last Quarter

Hourly Weather History & Observations

Time (EST) Temp. Dew Point Humidity Pressure Visibility Wind Dir Wind Speed Gust Speed Precip Events Conditions
12:15 AM 39.2 °F 39.2 °F 100% 29.96 in 1.0 mi Calm Calm - N/A   Clear
12:35 AM 41.0 °F 41.0 °F 100% 29.96 in 0.5 mi Calm Calm - N/A Fog Fog
12:55 AM 41.0 °F 41.0 °F 100% 29.96 in 0.2 mi Calm Calm - N/A Fog Fog
1:15 AM 39.2 °F 39.2 °F 100% 29.96 in 0.2 mi Calm Calm - N/A Fog Fog
1:35 AM 39.2 °F 39.2 °F 100% 29.96 in 5.0 mi Calm Calm - N/A   Clear
1:55 AM 37.4 °F 37.4 °F 100% 29.97 in 0.8 mi Calm Calm - N/A   Mist
2:15 AM 37.4 °F 37.4 °F 100% 29.98 in 0.2 mi Calm Calm - N/A Fog Fog
2:35 AM 37.4 °F 37.4 °F 100% 29.99 in 0.2 mi Calm Calm - N/A Fog Fog
2:55 AM 37.4 °F 37.4 °F 100% 29.99 in 0.2 mi Calm Calm - N/A Fog Fog
3:15 AM 37.4 °F 37.4 °F 100% 30.00 in 0.2 mi Calm Calm - N/A Fog Fog
3:35 AM 37.4 °F 37.4 °F 100% 30.00 in 0.2 mi Calm Calm - N/A Fog Fog
3:55 AM 37.4 °F 37.4 °F 100% 29.99 in 0.5 mi Calm Calm - N/A Fog Fog
4:15 AM 37.4 °F 37.4 °F 100% 30.00 in 0.2 mi Calm Calm - N/A Fog Fog
4:35 AM 37.4 °F 37.4 °F 100% 30.00 in 0.2 mi Calm Calm - N/A Fog Fog
4:55 AM 37.4 °F 37.4 °F 100% 30.00 in 0.5 mi Calm Calm - N/A Fog Fog
5:15 AM 35.6 °F 35.6 °F 100% 30.02 in 0.5 mi Calm Calm - N/A Fog Fog
5:35 AM 35.6 °F 35.6 °F 100% 30.01 in 0.5 mi Calm Calm - N/A Fog Fog
5:55 AM 35.6 °F 35.6 °F 100% 30.02 in 1.0 mi Calm Calm - N/A   Clear
6:15 AM 33.8 °F 33.8 °F 100% 30.02 in 0.8 mi Calm Calm - N/A   Mist
6:35 AM 32.0 °F 32.0 °F 100% 30.02 in 0.8 mi Calm Calm - N/A   Mist
6:55 AM 32.0 °F 32.0 °F 100% 30.03 in 8.0 mi Calm Calm - N/A   Clear
7:15 AM 32.0 °F 32.0 °F 100% 30.04 in 10.0 mi Calm Calm - N/A   Clear
7:35 AM 32.0 °F 32.0 °F 100% 30.05 in 9.0 mi Calm Calm - N/A   Scattered Clouds
7:55 AM 32.0 °F 32.0 °F 100% 30.06 in 0.5 mi Calm Calm - N/A Fog Fog
8:15 AM 32.0 °F 32.0 °F 100% 30.06 in 0.5 mi Calm Calm - N/A Fog Fog
8:35 AM 32.0 °F 32.0 °F 100% 30.06 in 0.5 mi Calm Calm - N/A Fog Fog
8:55 AM 33.8 °F 33.8 °F 100% 30.08 in 2.0 mi Calm Calm - N/A   Clear
9:15 AM 37.4 °F 37.4 °F 100% 30.10 in 7.0 mi Calm Calm - N/A   Clear
9:35 AM 39.2 °F 39.2 °F 100% 30.10 in 10.0 mi Calm Calm - N/A   Partly Cloudy
9:55 AM 41.0 °F 41.0 °F 100% 30.11 in 10.0 mi Calm Calm - N/A   Clear
10:15 AM 42.8 °F 42.8 °F 100% 30.12 in 10.0 mi Calm Calm - N/A   Clear
10:35 AM 44.6 °F 44.6 °F 100% 30.12 in 10.0 mi Calm Calm - N/A   Clear
10:55 AM 46.4 °F 46.4 °F 100% 30.11 in 10.0 mi Calm Calm - N/A   Clear
11:15 AM 48.2 °F 48.2 °F 100% 30.10 in 10.0 mi Calm Calm - N/A   Clear
11:35 AM 50.0 °F 44.6 °F 82% 30.09 in 10.0 mi Calm Calm - N/A   Clear
11:55 AM 50.0 °F 41.0 °F 71% 30.10 in 10.0 mi Calm Calm - N/A   Clear
12:15 PM 51.8 °F 44.6 °F 76% 30.10 in 10.0 mi WSW 3.5 mph - N/A   Clear
12:35 PM 51.8 °F 44.6 °F 76% 30.10 in 10.0 mi Calm Calm - N/A   Clear
12:55 PM 53.6 °F 41.0 °F 62% 30.09 in 10.0 mi Calm Calm - N/A   Clear
1:15 PM 53.6 °F 41.0 °F 62% 30.08 in 10.0 mi Calm Calm - N/A   Clear
1:35 PM 53.6 °F 41.0 °F 62% 30.08 in 10.0 mi WSW 4.6 mph - N/A   Clear
1:55 PM 53.6 °F 42.8 °F 67% 30.08 in 10.0 mi WSW 3.5 mph - N/A   Clear
2:15 PM 53.6 °F 44.6 °F 72% 30.07 in 10.0 mi Calm Calm - N/A   Clear
2:35 PM 51.8 °F 44.6 °F 76% 30.07 in 10.0 mi Calm Calm - N/A   Clear
2:55 PM 53.6 °F 44.6 °F 72% 30.07 in 10.0 mi Calm Calm - N/A   Clear
3:15 PM 51.8 °F 46.4 °F 82% 30.08 in 10.0 mi Calm Calm - N/A   Clear
3:35 PM 51.8 °F 46.4 °F 82% 30.09 in 10.0 mi Calm Calm - N/A   Clear
3:55 PM 51.8 °F 48.2 °F 88% 30.08 in 10.0 mi Calm Calm - N/A   Clear
4:15 PM 50.0 °F 48.2 °F 94% 30.09 in 10.0 mi Calm Calm - N/A   Clear
4:35 PM 50.0 °F 48.2 °F 94% 30.09 in 10.0 mi Calm Calm - N/A   Clear
4:55 PM 48.2 °F 48.2 °F 100% 30.08 in 10.0 mi Calm Calm - N/A   Clear
5:15 PM 48.2 °F 48.2 °F 100% 30.09 in 10.0 mi Calm Calm - N/A   Clear
5:35 PM 46.4 °F 46.4 °F 100% 30.09 in 10.0 mi Calm Calm - N/A   Clear
5:55 PM 46.4 °F 46.4 °F 100% 30.09 in 10.0 mi Calm Calm - N/A   Clear
6:15 PM 46.4 °F 46.4 °F 100% 30.08 in 10.0 mi Calm Calm - N/A   Clear
6:35 PM 44.6 °F 44.6 °F 100% 30.09 in 10.0 mi Calm Calm - N/A   Clear
6:55 PM 44.6 °F 44.6 °F 100% 30.10 in 10.0 mi Calm Calm - N/A   Clear
7:15 PM 44.6 °F 44.6 °F 100% 30.11 in 9.0 mi Calm Calm - N/A   Clear
7:35 PM 44.6 °F 44.6 °F 100% 30.11 in 8.0 mi Calm Calm - N/A   Clear
7:55 PM 44.6 °F 44.6 °F 100% 30.12 in 7.0 mi Calm Calm - N/A   Clear
8:15 PM 42.8 °F 42.8 °F 100% 30.12 in 7.0 mi Calm Calm - N/A   Clear
8:35 PM 42.8 °F 42.8 °F 100% 30.13 in 7.0 mi Calm Calm - N/A   Clear
8:55 PM 42.8 °F 42.8 °F 100% 30.13 in 8.0 mi Calm Calm - N/A   Clear
9:15 PM 41.0 °F 41.0 °F 100% 30.13 in 8.0 mi Calm Calm - N/A   Clear
9:35 PM 42.8 °F 42.8 °F 100% 30.12 in 8.0 mi Calm Calm - N/A   Clear
9:55 PM 41.0 °F 41.0 °F 100% 30.13 in 8.0 mi Calm Calm - N/A   Clear
10:15 PM 41.0 °F 41.0 °F 100% 30.14 in 8.0 mi Calm Calm - N/A   Clear
10:35 PM 41.0 °F 41.0 °F 100% 30.13 in 6.0 mi Calm Calm - N/A   Clear
10:55 PM 42.8 °F 42.8 °F 100% 30.12 in 7.0 mi Calm Calm - N/A   Clear
11:15 PM 42.8 °F 42.8 °F 100% 30.12 in 8.0 mi Calm Calm - N/A   Clear
11:35 PM 42.8 °F 42.8 °F 100% 30.13 in 4.0 mi Calm Calm - N/A   Clear
11:55 PM 44.6 °F 44.6 °F 100% 30.14 in 10.0 mi Calm Calm - N/A   Mostly Cloudy